sensor_id;sensor_type;location;lat;lon;timestamp;temperature;humidity
18388;DHT22;9320;50.256;19.026;2023-04-25T00:01:46;11.90;99.90
18388;DHT22;9320;50.256;19.026;2023-04-25T00:04:15;11.90;99.90
18388;DHT22;9320;50.256;19.026;2023-04-25T00:06:44;11.80;99.90
18388;DHT22;9320;50.256;19.026;2023-04-25T00:09:12;11.90;99.90
18388;DHT22;9320;50.256;19.026;2023-04-25T00:11:40;11.90;99.90
18388;DHT22;9320;50.256;19.026;2023-04-25T00:14:08;11.90;99.90
18388;DHT22;9320;50.256;19.026;2023-04-25T00:16:36;12.00;99.90
18388;DHT22;9320;50.256;19.026;2023-04-25T00:19:04;12.00;99.90
18388;DHT22;9320;50.256;19.026;2023-04-25T00:21:34;12.00;99.90
18388;DHT22;9320;50.256;19.026;2023-04-25T00:24:04;12.00;99.90
18388;DHT22;9320;50.256;19.026;2023-04-25T00:26:33;12.00;99.90
18388;DHT22;9320;50.256;19.026;2023-04-25T00:29:02;12.10;99.90
18388;DHT22;9320;50.256;19.026;2023-04-25T00:31:30;12.10;99.90
18388;DHT22;9320;50.256;19.026;2023-04-25T00:33:58;12.10;99.90
18388;DHT22;9320;50.256;19.026;2023-04-25T00:36:26;12.00;99.90
18388;DHT22;9320;50.256;19.026;2023-04-25T00:38:56;12.10;99.90
18388;DHT22;9320;50.256;19.026;2023-04-25T00:41:25;12.00;99.90
18388;DHT22;9320;50.256;19.026;2023-04-25T00:43:54;12.00;99.90
18388;DHT22;9320;50.256;19.026;2023-04-25T00:46:23;12.00;99.90
18388;DHT22;9320;50.256;19.026;2023-04-25T00:48:51;12.00;99.90
18388;DHT22;9320;50.256;19.026;2023-04-25T00:51:21;12.10;99.90
18388;DHT22;9320;50.256;19.026;2023-04-25T00:53:49;12.00;99.90
18388;DHT22;9320;50.256;19.026;2023-04-25T00:56:19;12.00;99.90
18388;DHT22;9320;50.256;19.026;2023-04-25T00:58:48;12.00;99.90
18388;DHT22;9320;50.256;19.026;2023-04-25T01:01:17;11.90;99.90
18388;DHT22;9320;50.256;19.026;2023-04-25T01:03:46;11.90;99.90
18388;DHT22;9320;50.256;19.026;2023-04-25T01:06:17;11.90;99.90
18388;DHT22;9320;50.256;19.026;2023-04-25T01:08:45;11.90;99.90
18388;DHT22;9320;50.256;19.026;2023-04-25T01:11:13;11.90;99.90
18388;DHT22;9320;50.256;19.026;2023-04-25T01:13:42;11.90;99.90
18388;DHT22;9320;50.256;19.026;2023-04-25T01:16:11;11.90;99.90
18388;DHT22;9320;50.256;19.026;2023-04-25T01:18:39;11.80;99.90
18388;DHT22;9320;50.256;19.026;2023-04-25T01:21:10;11.70;99.90
18388;DHT22;9320;50.256;19.026;2023-04-25T01:23:39;11.70;99.90
18388;DHT22;9320;50.256;19.026;2023-04-25T01:26:09;11.70;99.90
18388;DHT22;9320;50.256;19.026;2023-04-25T01:28:38;11.70;99.90
18388;DHT22;9320;50.256;19.026;2023-04-25T01:31:08;11.70;99.90
18388;DHT22;9320;50.256;19.026;2023-04-25T01:33:36;11.70;99.90
18388;DHT22;9320;50.256;19.026;2023-04-25T01:36:05;11.60;99.90
18388;DHT22;9320;50.256;19.026;2023-04-25T01:38:35;11.70;99.90
18388;DHT22;9320;50.256;19.026;2023-04-25T01:41:03;11.60;99.90
18388;DHT22;9320;50.256;19.026;2023-04-25T01:43:31;11.60;99.90
18388;DHT22;9320;50.256;19.026;2023-04-25T01:45:59;11.60;99.90
18388;DHT22;9320;50.256;19.026;2023-04-25T01:48:27;11.50;99.90
18388;DHT22;9320;50.256;19.026;2023-04-25T01:50:55;11.50;99.90
18388;DHT22;9320;50.256;19.026;2023-04-25T01:53:24;11.50;99.90
18388;DHT22;9320;50.256;19.026;2023-04-25T01:55:54;11.40;99.90
18388;DHT22;9320;50.256;19.026;2023-04-25T01:58:22;11.40;99.90
18388;DHT22;9320;50.256;19.026;2023-04-25T02:00:50;11.40;99.90
18388;DHT22;9320;50.256;19.026;2023-04-25T02:03:18;11.30;99.90
18388;DHT22;9320;50.256;19.026;2023-04-25T02:05:46;11.30;99.90
18388;DHT22;9320;50.256;19.026;2023-04-25T02:08:16;11.30;99.90
18388;DHT22;9320;50.256;19.026;2023-04-25T02:10:44;11.20;99.90
18388;DHT22;9320;50.256;19.026;2023-04-25T02:13:14;11.20;99.90
18388;DHT22;9320;50.256;19.026;2023-04-25T02:15:42;11.20;99.90
18388;DHT22;9320;50.256;19.026;2023-04-25T02:18:10;11.20;99.90
18388;DHT22;9320;50.256;19.026;2023-04-25T02:20:38;11.20;99.90
18388;DHT22;9320;50.256;19.026;2023-04-25T02:23:06;11.00;99.90
18388;DHT22;9320;50.256;19.026;2023-04-25T02:25:34;11.00;99.90
18388;DHT22;9320;50.256;19.026;2023-04-25T02:28:02;11.00;99.90
18388;DHT22;9320;50.256;19.026;2023-04-25T02:30:31;11.00;99.90
18388;DHT22;9320;50.256;19.026;2023-04-25T02:32:59;11.00;99.90
18388;DHT22;9320;50.256;19.026;2023-04-25T02:35:28;10.90;99.90
18388;DHT22;9320;50.256;19.026;2023-04-25T02:37:56;10.90;99.90
18388;DHT22;9320;50.256;19.026;2023-04-25T02:40:24;10.80;99.90
18388;DHT22;9320;50.256;19.026;2023-04-25T02:42:52;10.80;99.90
18388;DHT22;9320;50.256;19.026;2023-04-25T02:45:21;10.80;99.90
18388;DHT22;9320;50.256;19.026;2023-04-25T02:47:50;10.80;99.90
18388;DHT22;9320;50.256;19.026;2023-04-25T02:50:19;10.70;99.90
18388;DHT22;9320;50.256;19.026;2023-04-25T02:52:47;10.70;99.90
18388;DHT22;9320;50.256;19.026;2023-04-25T02:55:15;10.60;99.90
18388;DHT22;9320;50.256;19.026;2023-04-25T02:57:43;10.70;99.90
18388;DHT22;9320;50.256;19.026;2023-04-25T03:00:12;10.70;99.90
18388;DHT22;9320;50.256;19.026;2023-04-25T03:02:41;10.60;99.90
18388;DHT22;9320;50.256;19.026;2023-04-25T03:05:10;10.60;99.90
18388;DHT22;9320;50.256;19.026;2023-04-25T03:07:38;10.60;99.90
18388;DHT22;9320;50.256;19.026;2023-04-25T03:10:07;10.60;99.90
18388;DHT22;9320;50.256;19.026;2023-04-25T03:12:35;10.60;99.90
18388;DHT22;9320;50.256;19.026;2023-04-25T03:15:04;10.50;99.90
18388;DHT22;9320;50.256;19.026;2023-04-25T03:17:32;10.50;99.90
18388;DHT22;9320;50.256;19.026;2023-04-25T03:20:01;10.50;99.90
18388;DHT22;9320;50.256;19.026;2023-04-25T03:22:32;10.50;99.90
18388;DHT22;9320;50.256;19.026;2023-04-25T03:25:00;10.40;99.90
18388;DHT22;9320;50.256;19.026;2023-04-25T03:27:28;10.30;99.90
18388;DHT22;9320;50.256;19.026;2023-04-25T03:29:56;10.30;99.90
18388;DHT22;9320;50.256;19.026;2023-04-25T03:32:24;10.30;99.90
18388;DHT22;9320;50.256;19.026;2023-04-25T03:34:52;10.30;99.90
18388;DHT22;9320;50.256;19.026;2023-04-25T03:37:20;10.30;99.90
18388;DHT22;9320;50.256;19.026;2023-04-25T03:39:49;10.30;99.90
18388;DHT22;9320;50.256;19.026;2023-04-25T03:42:17;10.30;99.90
18388;DHT22;9320;50.256;19.026;2023-04-25T03:44:46;10.30;99.90
18388;DHT22;9320;50.256;19.026;2023-04-25T03:47:14;10.40;99.90
18388;DHT22;9320;50.256;19.026;2023-04-25T03:49:42;10.40;99.90
18388;DHT22;9320;50.256;19.026;2023-04-25T03:52:11;10.40;99.90
18388;DHT22;9320;50.256;19.026;2023-04-25T03:54:39;10.50;99.90
18388;DHT22;9320;50.256;19.026;2023-04-25T03:57:08;10.40;99.90
18388;DHT22;9320;50.256;19.026;2023-04-25T03:59:37;10.30;99.90
18388;DHT22;9320;50.256;19.026;2023-04-25T04:02:06;10.40;99.90
18388;DHT22;9320;50.256;19.026;2023-04-25T04:04:34;10.40;99.90
18388;DHT22;9320;50.256;19.026;2023-04-25T04:07:02;10.40;99.90
18388;DHT22;9320;50.256;19.026;2023-04-25T04:09:30;10.40;99.90
18388;DHT22;9320;50.256;19.026;2023-04-25T04:11:58;10.30;99.90
18388;DHT22;9320;50.256;19.026;2023-04-25T04:14:29;10.30;99.90
18388;DHT22;9320;50.256;19.026;2023-04-25T04:16:57;10.30;99.90
18388;DHT22;9320;50.256;19.026;2023-04-25T04:19:25;10.40;99.90
18388;DHT22;9320;50.256;19.026;2023-04-25T04:21:53;10.30;99.90
18388;DHT22;9320;50.256;19.026;2023-04-25T04:24:22;10.30;99.90
18388;DHT22;9320;50.256;19.026;2023-04-25T04:26:50;10.30;99.90
18388;DHT22;9320;50.256;19.026;2023-04-25T04:29:18;10.40;99.90
18388;DHT22;9320;50.256;19.026;2023-04-25T04:31:50;10.50;99.90
18388;DHT22;9320;50.256;19.026;2023-04-25T04:34:19;10.40;99.90
18388;DHT22;9320;50.256;19.026;2023-04-25T04:36:48;10.40;99.90
18388;DHT22;9320;50.256;19.026;2023-04-25T04:39:15;10.40;99.90
18388;DHT22;9320;50.256;19.026;2023-04-25T04:41:43;10.40;99.90
18388;DHT22;9320;50.256;19.026;2023-04-25T04:44:12;10.40;99.90
18388;DHT22;9320;50.256;19.026;2023-04-25T04:46:41;10.40;99.90
18388;DHT22;9320;50.256;19.026;2023-04-25T04:49:11;10.50;99.90
18388;DHT22;9320;50.256;19.026;2023-04-25T04:51:40;10.50;99.90
18388;DHT22;9320;50.256;19.026;2023-04-25T04:54:11;10.50;99.90
18388;DHT22;9320;50.256;19.026;2023-04-25T04:56:39;10.60;99.90
18388;DHT22;9320;50.256;19.026;2023-04-25T04:59:08;10.50;99.90
18388;DHT22;9320;50.256;19.026;2023-04-25T05:01:36;10.60;99.90
18388;DHT22;9320;50.256;19.026;2023-04-25T05:04:05;10.70;99.90
18388;DHT22;9320;50.256;19.026;2023-04-25T05:06:35;10.80;99.90
18388;DHT22;9320;50.256;19.026;2023-04-25T05:09:03;10.80;99.90
18388;DHT22;9320;50.256;19.026;2023-04-25T05:11:31;10.90;99.90
18388;DHT22;9320;50.256;19.026;2023-04-25T05:13:59;10.90;99.90
18388;DHT22;9320;50.256;19.026;2023-04-25T05:16:27;11.00;99.90
18388;DHT22;9320;50.256;19.026;2023-04-25T05:18:55;10.90;99.90
18388;DHT22;9320;50.256;19.026;2023-04-25T05:21:23;10.90;99.90
18388;DHT22;9320;50.256;19.026;2023-04-25T05:23:53;11.00;99.90
18388;DHT22;9320;50.256;19.026;2023-04-25T05:26:22;11.10;99.90
18388;DHT22;9320;50.256;19.026;2023-04-25T05:28:50;11.20;99.90
18388;DHT22;9320;50.256;19.026;2023-04-25T05:31:18;11.50;99.90
18388;DHT22;9320;50.256;19.026;2023-04-25T05:33:46;11.20;99.90
18388;DHT22;9320;50.256;19.026;2023-04-25T05:36:14;11.30;99.90
18388;DHT22;9320;50.256;19.026;2023-04-25T05:38:42;11.20;99.90
18388;DHT22;9320;50.256;19.026;2023-04-25T05:41:12;11.10;99.90
18388;DHT22;9320;50.256;19.026;2023-04-25T05:43:40;11.10;99.90
18388;DHT22;9320;50.256;19.026;2023-04-25T05:46:11;11.20;99.90
18388;DHT22;9320;50.256;19.026;2023-04-25T05:48:40;11.20;99.90
18388;DHT22;9320;50.256;19.026;2023-04-25T05:51:08;11.40;99.90
18388;DHT22;9320;50.256;19.026;2023-04-25T05:53:36;11.40;99.90
18388;DHT22;9320;50.256;19.026;2023-04-25T05:56:04;11.40;99.90
18388;DHT22;9320;50.256;19.026;2023-04-25T05:58:33;11.60;99.90
18388;DHT22;9320;50.256;19.026;2023-04-25T06:01:01;11.50;99.90
18388;DHT22;9320;50.256;19.026;2023-04-25T06:03:30;11.60;99.90
18388;DHT22;9320;50.256;19.026;2023-04-25T06:05:59;11.60;99.90
18388;DHT22;9320;50.256;19.026;2023-04-25T06:08:29;11.80;99.90
18388;DHT22;9320;50.256;19.026;2023-04-25T06:10:57;11.60;99.90
18388;DHT22;9320;50.256;19.026;2023-04-25T06:13:25;11.50;99.90
18388;DHT22;9320;50.256;19.026;2023-04-25T06:15:55;11.50;99.90
18388;DHT22;9320;50.256;19.026;2023-04-25T06:18:24;11.40;99.90
18388;DHT22;9320;50.256;19.026;2023-04-25T06:20:54;11.30;99.90
18388;DHT22;9320;50.256;19.026;2023-04-25T06:23:22;11.20;99.90
18388;DHT22;9320;50.256;19.026;2023-04-25T06:25:51;11.10;99.90
18388;DHT22;9320;50.256;19.026;2023-04-25T06:28:20;11.30;99.80
18388;DHT22;9320;50.256;19.026;2023-04-25T06:30:50;11.30;99.40
18388;DHT22;9320;50.256;19.026;2023-04-25T06:33:21;11.20;98.40
18388;DHT22;9320;50.256;19.026;2023-04-25T06:35:54;11.30;98.80
18388;DHT22;9320;50.256;19.026;2023-04-25T06:38:23;11.40;98.90
18388;DHT22;9320;50.256;19.026;2023-04-25T06:40:52;11.60;98.90
18388;DHT22;9320;50.256;19.026;2023-04-25T06:43:21;11.70;98.20
18388;DHT22;9320;50.256;19.026;2023-04-25T06:45:50;11.90;98.00
18388;DHT22;9320;50.256;19.026;2023-04-25T06:48:20;12.00;96.60
18388;DHT22;9320;50.256;19.026;2023-04-25T06:50:55;12.00;95.50
18388;DHT22;9320;50.256;19.026;2023-04-25T06:53:31;11.80;95.50
18388;DHT22;9320;50.256;19.026;2023-04-25T06:55:59;11.60;96.10
18388;DHT22;9320;50.256;19.026;2023-04-25T06:58:27;11.60;96.30
18388;DHT22;9320;50.256;19.026;2023-04-25T07:00:55;11.70;96.20
18388;DHT22;9320;50.256;19.026;2023-04-25T07:03:25;11.80;95.20
18388;DHT22;9320;50.256;19.026;2023-04-25T07:05:54;11.80;95.60
18388;DHT22;9320;50.256;19.026;2023-04-25T07:08:22;11.90;95.20
18388;DHT22;9320;50.256;19.026;2023-04-25T07:10:50;11.70;95.00
18388;DHT22;9320;50.256;19.026;2023-04-25T07:13:18;11.70;95.40
18388;DHT22;9320;50.256;19.026;2023-04-25T07:15:46;11.70;94.90
18388;DHT22;9320;50.256;19.026;2023-04-25T07:18:15;11.60;94.70
18388;DHT22;9320;50.256;19.026;2023-04-25T07:20:44;11.60;95.00
18388;DHT22;9320;50.256;19.026;2023-04-25T07:23:12;11.70;94.80
18388;DHT22;9320;50.256;19.026;2023-04-25T07:25:41;11.80;95.00
18388;DHT22;9320;50.256;19.026;2023-04-25T07:28:09;11.90;94.00
18388;DHT22;9320;50.256;19.026;2023-04-25T07:30:37;11.90;93.90
18388;DHT22;9320;50.256;19.026;2023-04-25T07:33:05;12.00;93.80
18388;DHT22;9320;50.256;19.026;2023-04-25T07:35:33;12.10;93.80
18388;DHT22;9320;50.256;19.026;2023-04-25T07:38:03;12.20;94.00
18388;DHT22;9320;50.256;19.026;2023-04-25T07:40:33;12.30;92.50
18388;DHT22;9320;50.256;19.026;2023-04-25T07:43:01;12.30;92.90
18388;DHT22;9320;50.256;19.026;2023-04-25T07:45:30;12.30;92.40
18388;DHT22;9320;50.256;19.026;2023-04-25T07:47:58;12.30;92.50
18388;DHT22;9320;50.256;19.026;2023-04-25T07:50:55;12.40;92.40
18388;DHT22;9320;50.256;19.026;2023-04-25T07:53:24;12.20;91.80
18388;DHT22;9320;50.256;19.026;2023-04-25T07:55:52;12.20;91.70
18388;DHT22;9320;50.256;19.026;2023-04-25T07:58:20;12.30;91.30
18388;DHT22;9320;50.256;19.026;2023-04-25T08:00:49;12.20;90.90
18388;DHT22;9320;50.256;19.026;2023-04-25T08:03:19;12.40;90.50
18388;DHT22;9320;50.256;19.026;2023-04-25T08:05:48;12.50;90.60
18388;DHT22;9320;50.256;19.026;2023-04-25T08:08:16;12.70;90.40
18388;DHT22;9320;50.256;19.026;2023-04-25T08:10:46;13.00;89.50
18388;DHT22;9320;50.256;19.026;2023-04-25T08:13:15;13.10;88.20
18388;DHT22;9320;50.256;19.026;2023-04-25T08:15:43;13.40;88.50
18388;DHT22;9320;50.256;19.026;2023-04-25T08:18:12;13.60;86.20
18388;DHT22;9320;50.256;19.026;2023-04-25T08:20:43;13.80;84.20
18388;DHT22;9320;50.256;19.026;2023-04-25T08:23:12;13.90;83.20
18388;DHT22;9320;50.256;19.026;2023-04-25T08:25:40;14.10;83.20
18388;DHT22;9320;50.256;19.026;2023-04-25T08:28:09;14.60;82.40
18388;DHT22;9320;50.256;19.026;2023-04-25T08:30:38;15.00;78.80
18388;DHT22;9320;50.256;19.026;2023-04-25T08:33:07;15.30;77.60
18388;DHT22;9320;50.256;19.026;2023-04-25T08:35:35;16.10;77.10
18388;DHT22;9320;50.256;19.026;2023-04-25T08:38:03;17.10;69.90
18388;DHT22;9320;50.256;19.026;2023-04-25T08:40:36;17.70;67.70
18388;DHT22;9320;50.256;19.026;2023-04-25T08:43:06;17.40;66.30
18388;DHT22;9320;50.256;19.026;2023-04-25T08:45:40;16.50;68.40
18388;DHT22;9320;50.256;19.026;2023-04-25T08:48:11;16.40;69.80
18388;DHT22;9320;50.256;19.026;2023-04-25T08:50:43;16.30;68.20
18388;DHT22;9320;50.256;19.026;2023-04-25T08:53:13;16.30;66.70
18388;DHT22;9320;50.256;19.026;2023-04-25T08:55:46;15.50;67.00
18388;DHT22;9320;50.256;19.026;2023-04-25T08:58:15;15.20;68.50
18388;DHT22;9320;50.256;19.026;2023-04-25T09:00:45;15.10;68.00
18388;DHT22;9320;50.256;19.026;2023-04-25T09:03:14;15.70;65.90
18388;DHT22;9320;50.256;19.026;2023-04-25T09:05:43;16.50;64.80
18388;DHT22;9320;50.256;19.026;2023-04-25T09:08:12;17.70;61.70
18388;DHT22;9320;50.256;19.026;2023-04-25T09:10:40;18.30;59.60
18388;DHT22;9320;50.256;19.026;2023-04-25T09:13:10;17.60;58.70
18388;DHT22;9320;50.256;19.026;2023-04-25T09:15:58;17.00;61.30
18388;DHT22;9320;50.256;19.026;2023-04-25T09:18:28;16.40;62.10
18388;DHT22;9320;50.256;19.026;2023-04-25T09:21:05;15.70;64.00
18388;DHT22;9320;50.256;19.026;2023-04-25T09:23:40;14.90;66.20
18388;DHT22;9320;50.256;19.026;2023-04-25T09:26:08;14.70;68.10
18388;DHT22;9320;50.256;19.026;2023-04-25T09:28:36;14.40;69.20
18388;DHT22;9320;50.256;19.026;2023-04-25T09:31:09;14.20;70.00
18388;DHT22;9320;50.256;19.026;2023-04-25T09:33:38;14.70;69.50
18388;DHT22;9320;50.256;19.026;2023-04-25T09:36:09;15.00;67.70
18388;DHT22;9320;50.256;19.026;2023-04-25T09:38:41;15.70;66.00
18388;DHT22;9320;50.256;19.026;2023-04-25T09:41:10;15.80;65.40
18388;DHT22;9320;50.256;19.026;2023-04-25T09:43:39;15.80;64.20
18388;DHT22;9320;50.256;19.026;2023-04-25T09:46:10;15.60;64.70
18388;DHT22;9320;50.256;19.026;2023-04-25T09:48:39;15.20;66.30
18388;DHT22;9320;50.256;19.026;2023-04-25T09:51:12;15.10;67.50
18388;DHT22;9320;50.256;19.026;2023-04-25T09:53:42;15.10;66.70
18388;DHT22;9320;50.256;19.026;2023-04-25T09:56:11;15.60;65.20
18388;DHT22;9320;50.256;19.026;2023-04-25T09:58:40;15.70;63.20
18388;DHT22;9320;50.256;19.026;2023-04-25T10:01:10;15.70;64.40
18388;DHT22;9320;50.256;19.026;2023-04-25T10:03:40;15.30;64.50
18388;DHT22;9320;50.256;19.026;2023-04-25T10:06:12;15.00;65.20
18388;DHT22;9320;50.256;19.026;2023-04-25T10:08:43;15.00;65.20
18388;DHT22;9320;50.256;19.026;2023-04-25T10:11:12;15.50;64.40
18388;DHT22;9320;50.256;19.026;2023-04-25T10:13:43;16.40;61.10
18388;DHT22;9320;50.256;19.026;2023-04-25T10:16:13;16.90;59.30
18388;DHT22;9320;50.256;19.026;2023-04-25T10:18:43;17.20;58.80
18388;DHT22;9320;50.256;19.026;2023-04-25T10:21:11;17.10;58.20
18388;DHT22;9320;50.256;19.026;2023-04-25T10:23:40;16.80;59.20
18388;DHT22;9320;50.256;19.026;2023-04-25T10:26:08;16.20;58.80
18388;DHT22;9320;50.256;19.026;2023-04-25T10:28:54;15.60;59.50
18388;DHT22;9320;50.256;19.026;2023-04-25T10:31:24;15.30;59.20
18388;DHT22;9320;50.256;19.026;2023-04-25T10:33:53;15.50;60.00
18388;DHT22;9320;50.256;19.026;2023-04-25T10:36:22;15.50;59.50
18388;DHT22;9320;50.256;19.026;2023-04-25T10:38:51;15.30;61.20
18388;DHT22;9320;50.256;19.026;2023-04-25T10:41:20;15.10;61.00
18388;DHT22;9320;50.256;19.026;2023-04-25T10:43:50;14.90;62.50
18388;DHT22;9320;50.256;19.026;2023-04-25T10:46:28;15.10;62.60
18388;DHT22;9320;50.256;19.026;2023-04-25T10:48:59;15.30;61.60
18388;DHT22;9320;50.256;19.026;2023-04-25T10:51:29;15.30;61.40
18388;DHT22;9320;50.256;19.026;2023-04-25T10:54:18;15.20;61.40
18388;DHT22;9320;50.256;19.026;2023-04-25T10:56:49;15.50;61.30
18388;DHT22;9320;50.256;19.026;2023-04-25T10:59:19;15.60;60.60
18388;DHT22;9320;50.256;19.026;2023-04-25T11:01:54;15.30;61.70
18388;DHT22;9320;50.256;19.026;2023-04-25T11:04:23;15.40;61.40
18388;DHT22;9320;50.256;19.026;2023-04-25T11:07:03;15.20;61.40
18388;DHT22;9320;50.256;19.026;2023-04-25T11:09:34;15.10;61.60
18388;DHT22;9320;50.256;19.026;2023-04-25T11:12:04;15.10;61.60
18388;DHT22;9320;50.256;19.026;2023-04-25T11:14:32;14.90;61.90
18388;DHT22;9320;50.256;19.026;2023-04-25T11:17:01;15.00;61.70
18388;DHT22;9320;50.256;19.026;2023-04-25T11:19:30;15.10;61.60
18388;DHT22;9320;50.256;19.026;2023-04-25T11:21:59;15.30;60.50
18388;DHT22;9320;50.256;19.026;2023-04-25T11:24:28;15.20;60.70
18388;DHT22;9320;50.256;19.026;2023-04-25T11:26:58;15.20;61.30
18388;DHT22;9320;50.256;19.026;2023-04-25T11:29:26;15.40;60.80
18388;DHT22;9320;50.256;19.026;2023-04-25T11:31:55;15.40;60.10
18388;DHT22;9320;50.256;19.026;2023-04-25T11:34:26;15.20;60.40
18388;DHT22;9320;50.256;19.026;2023-04-25T11:36:58;14.80;60.30
18388;DHT22;9320;50.256;19.026;2023-04-25T11:39:32;14.90;61.30
18388;DHT22;9320;50.256;19.026;2023-04-25T11:42:00;15.20;60.40
18388;DHT22;9320;50.256;19.026;2023-04-25T11:44:34;15.10;60.70
18388;DHT22;9320;50.256;19.026;2023-04-25T11:47:02;15.10;60.00
18388;DHT22;9320;50.256;19.026;2023-04-25T11:49:32;14.90;59.80
18388;DHT22;9320;50.256;19.026;2023-04-25T11:52:02;14.90;61.30
18388;DHT22;9320;50.256;19.026;2023-04-25T11:54:30;15.10;61.60
18388;DHT22;9320;50.256;19.026;2023-04-25T11:56:58;14.90;60.80
18388;DHT22;9320;50.256;19.026;2023-04-25T11:59:26;14.90;61.10
18388;DHT22;9320;50.256;19.026;2023-04-25T12:01:54;14.70;61.80
18388;DHT22;9320;50.256;19.026;2023-04-25T12:04:24;14.60;62.20
18388;DHT22;9320;50.256;19.026;2023-04-25T12:06:55;14.40;62.20
18388;DHT22;9320;50.256;19.026;2023-04-25T12:09:28;14.10;63.20
18388;DHT22;9320;50.256;19.026;2023-04-25T12:11:59;14.20;63.10
18388;DHT22;9320;50.256;19.026;2023-04-25T12:14:31;14.30;62.50
18388;DHT22;9320;50.256;19.026;2023-04-25T12:17:00;14.30;62.80
18388;DHT22;9320;50.256;19.026;2023-04-25T12:19:32;14.50;63.20
18388;DHT22;9320;50.256;19.026;2023-04-25T12:22:03;14.50;63.30
18388;DHT22;9320;50.256;19.026;2023-04-25T12:24:46;14.60;63.40
18388;DHT22;9320;50.256;19.026;2023-04-25T12:27:15;14.80;63.50
18388;DHT22;9320;50.256;19.026;2023-04-25T12:29:51;14.50;64.20
18388;DHT22;9320;50.256;19.026;2023-04-25T12:32:20;14.40;64.40
18388;DHT22;9320;50.256;19.026;2023-04-25T12:34:48;14.30;65.50
18388;DHT22;9320;50.256;19.026;2023-04-25T12:37:18;14.20;64.90
18388;DHT22;9320;50.256;19.026;2023-04-25T12:39:46;14.40;65.30
18388;DHT22;9320;50.256;19.026;2023-04-25T12:42:14;14.50;64.60
18388;DHT22;9320;50.256;19.026;2023-04-25T12:44:42;14.60;64.40
18388;DHT22;9320;50.256;19.026;2023-04-25T12:47:10;14.60;64.60
18388;DHT22;9320;50.256;19.026;2023-04-25T12:49:38;14.50;64.20
18388;DHT22;9320;50.256;19.026;2023-04-25T12:52:06;14.30;64.20
18388;DHT22;9320;50.256;19.026;2023-04-25T12:54:36;14.30;64.70
18388;DHT22;9320;50.256;19.026;2023-04-25T12:57:05;14.30;64.40
18388;DHT22;9320;50.256;19.026;2023-04-25T12:59:33;14.40;64.30
18388;DHT22;9320;50.256;19.026;2023-04-25T13:02:01;14.40;63.60
18388;DHT22;9320;50.256;19.026;2023-04-25T13:04:30;14.30;64.20
18388;DHT22;9320;50.256;19.026;2023-04-25T13:06:58;14.40;64.70
18388;DHT22;9320;50.256;19.026;2023-04-25T13:09:26;14.60;63.90
18388;DHT22;9320;50.256;19.026;2023-04-25T13:11:56;14.60;64.10
18388;DHT22;9320;50.256;19.026;2023-04-25T13:14:25;14.60;63.60
18388;DHT22;9320;50.256;19.026;2023-04-25T13:16:53;14.50;63.20
18388;DHT22;9320;50.256;19.026;2023-04-25T13:19:21;14.70;63.60
18388;DHT22;9320;50.256;19.026;2023-04-25T13:21:49;14.80;63.10
18388;DHT22;9320;50.256;19.026;2023-04-25T13:24:17;14.80;63.10
18388;DHT22;9320;50.256;19.026;2023-04-25T13:26:45;14.80;63.60
18388;DHT22;9320;50.256;19.026;2023-04-25T13:29:15;14.90;63.40
18388;DHT22;9320;50.256;19.026;2023-04-25T13:31:43;15.00;62.70
18388;DHT22;9320;50.256;19.026;2023-04-25T13:34:11;15.00;61.90
18388;DHT22;9320;50.256;19.026;2023-04-25T13:36:39;15.00;61.70
18388;DHT22;9320;50.256;19.026;2023-04-25T13:39:07;15.10;62.00
18388;DHT22;9320;50.256;19.026;2023-04-25T13:41:35;15.00;61.90
18388;DHT22;9320;50.256;19.026;2023-04-25T13:44:04;14.80;62.00
18388;DHT22;9320;50.256;19.026;2023-04-25T13:46:33;14.70;62.70
18388;DHT22;9320;50.256;19.026;2023-04-25T13:49:13;14.70;63.00
18388;DHT22;9320;50.256;19.026;2023-04-25T13:51:41;14.90;62.30
18388;DHT22;9320;50.256;19.026;2023-04-25T13:54:09;14.60;62.40
18388;DHT22;9320;50.256;19.026;2023-04-25T13:56:37;14.50;62.40
18388;DHT22;9320;50.256;19.026;2023-04-25T13:59:08;14.60;62.80
18388;DHT22;9320;50.256;19.026;2023-04-25T14:01:38;14.70;63.00
18388;DHT22;9320;50.256;19.026;2023-04-25T14:04:06;14.70;62.70
18388;DHT22;9320;50.256;19.026;2023-04-25T14:06:34;14.70;62.40
18388;DHT22;9320;50.256;19.026;2023-04-25T14:09:03;14.60;63.10
18388;DHT22;9320;50.256;19.026;2023-04-25T14:11:33;14.60;62.50
18388;DHT22;9320;50.256;19.026;2023-04-25T14:14:01;14.30;62.80
18388;DHT22;9320;50.256;19.026;2023-04-25T14:16:29;14.10;63.40
18388;DHT22;9320;50.256;19.026;2023-04-25T14:18:59;14.30;64.20
18388;DHT22;9320;50.256;19.026;2023-04-25T14:21:29;14.40;64.20
18388;DHT22;9320;50.256;19.026;2023-04-25T14:23:58;14.80;63.50
18388;DHT22;9320;50.256;19.026;2023-04-25T14:26:26;15.00;62.70
18388;DHT22;9320;50.256;19.026;2023-04-25T14:28:54;15.40;61.70
18388;DHT22;9320;50.256;19.026;2023-04-25T14:31:22;15.50;61.40
18388;DHT22;9320;50.256;19.026;2023-04-25T14:33:50;15.60;60.70
18388;DHT22;9320;50.256;19.026;2023-04-25T14:36:21;15.90;60.50
18388;DHT22;9320;50.256;19.026;2023-04-25T14:38:49;16.10;60.30
18388;DHT22;9320;50.256;19.026;2023-04-25T14:41:17;16.00;59.50
18388;DHT22;9320;50.256;19.026;2023-04-25T14:43:45;15.90;60.00
18388;DHT22;9320;50.256;19.026;2023-04-25T14:46:13;15.60;59.50
18388;DHT22;9320;50.256;19.026;2023-04-25T14:48:42;15.50;60.60
18388;DHT22;9320;50.256;19.026;2023-04-25T14:51:10;15.70;60.50
18388;DHT22;9320;50.256;19.026;2023-04-25T14:53:39;15.60;59.20
18388;DHT22;9320;50.256;19.026;2023-04-25T14:56:07;15.60;59.90
18388;DHT22;9320;50.256;19.026;2023-04-25T14:58:35;15.70;60.20
18388;DHT22;9320;50.256;19.026;2023-04-25T15:01:04;15.70;60.70
18388;DHT22;9320;50.256;19.026;2023-04-25T15:03:33;15.80;60.70
18388;DHT22;9320;50.256;19.026;2023-04-25T15:06:02;15.80;60.60
18388;DHT22;9320;50.256;19.026;2023-04-25T15:08:30;15.70;61.10
18388;DHT22;9320;50.256;19.026;2023-04-25T15:11:00;15.70;61.00
18388;DHT22;9320;50.256;19.026;2023-04-25T15:13:29;15.20;61.10
18388;DHT22;9320;50.256;19.026;2023-04-25T15:15:57;15.00;62.10
18388;DHT22;9320;50.256;19.026;2023-04-25T15:18:25;14.90;62.60
18388;DHT22;9320;50.256;19.026;2023-04-25T15:20:53;14.90;63.20
18388;DHT22;9320;50.256;19.026;2023-04-25T15:23:22;14.90;62.60
18388;DHT22;9320;50.256;19.026;2023-04-25T15:25:52;15.00;62.50
18388;DHT22;9320;50.256;19.026;2023-04-25T15:28:21;14.80;63.20
18388;DHT22;9320;50.256;19.026;2023-04-25T15:30:49;15.00;63.30
18388;DHT22;9320;50.256;19.026;2023-04-25T15:33:17;14.90;63.20
18388;DHT22;9320;50.256;19.026;2023-04-25T15:35:45;14.80;63.50
18388;DHT22;9320;50.256;19.026;2023-04-25T15:38:13;14.60;63.60
18388;DHT22;9320;50.256;19.026;2023-04-25T15:40:41;14.30;64.70
18388;DHT22;9320;50.256;19.026;2023-04-25T15:43:09;14.20;66.00